createdAt,value
2018-09-29T00:01:07.750Z,69.40
2018-09-29T00:03:35.773Z,70.15
2018-09-29T00:06:03.803Z,69.55
2018-09-29T00:08:31.819Z,69.83
2018-09-29T00:10:59.890Z,70.25
2018-09-29T00:13:27.912Z,69.79
2018-09-29T00:15:55.927Z,69.50
2018-09-29T00:18:23.933Z,69.22
2018-09-29T00:20:51.985Z,69.00
2018-09-29T00:23:20.982Z,69.43
2018-09-29T00:25:49.890Z,69.03
2018-09-29T00:28:17.909Z,68.91
2018-09-29T00:30:46.001Z,68.68
2018-09-29T00:33:14.050Z,69.35
2018-09-29T00:35:42.076Z,70.66
2018-09-29T00:38:10.078Z,71.38
2018-09-29T00:40:38.129Z,71.58
2018-09-29T00:43:06.142Z,71.60
2018-09-29T00:45:34.174Z,70.68
2018-09-29T00:48:02.193Z,70.44
2018-09-29T00:50:30.241Z,70.41
2018-09-29T00:52:58.245Z,70.39
2018-09-29T00:55:26.254Z,71.05
2018-09-29T00:57:54.256Z,71.05
2018-09-29T01:00:22.274Z,70.27
2018-09-29T01:02:50.265Z,70.35
2018-09-29T01:05:18.265Z,71.81
2018-09-29T01:07:46.284Z,70.76
2018-09-29T01:10:14.290Z,71.59
2018-09-29T01:12:42.305Z,71.60
2018-09-29T01:15:10.320Z,70.93
2018-09-29T01:17:38.324Z,70.81
2018-09-29T01:20:06.341Z,70.67
2018-09-29T01:22:34.341Z,70.88
2018-09-29T01:25:02.359Z,71.11
2018-09-29T01:27:30.357Z,70.63
2018-09-29T01:29:58.366Z,72.13
2018-09-29T01:32:26.373Z,71.77
2018-09-29T01:34:54.381Z,71.60
2018-09-29T01:37:22.398Z,71.32
2018-09-29T01:39:50.414Z,71.92
2018-09-29T01:42:18.425Z,71.25
2018-09-29T01:44:46.967Z,71.58
2018-09-29T01:47:14.998Z,71.92
2018-09-29T01:49:43.032Z,71.05
2018-09-29T01:52:11.042Z,71.57
2018-09-29T01:54:39.058Z,72.15
2018-09-29T01:57:07.078Z,71.81
2018-09-29T01:59:35.111Z,71.57
2018-09-29T02:02:03.118Z,71.17
2018-09-29T02:04:31.130Z,70.47
2018-09-29T02:06:59.138Z,71.10
2018-09-29T02:09:27.192Z,70.49
2018-09-29T02:11:55.242Z,71.56
2018-09-29T02:14:24.357Z,71.48
2018-09-29T02:16:52.369Z,71.83
2018-09-29T02:19:20.386Z,71.84
2018-09-29T02:21:48.464Z,71.11
2018-09-29T02:24:16.584Z,72.41
2018-09-29T02:26:44.584Z,72.98
2018-09-29T02:29:12.622Z,72.90
2018-09-29T02:31:40.685Z,72.05
2018-09-29T02:34:08.683Z,73.00
2018-09-29T02:36:36.708Z,72.85
2018-09-29T02:39:08.166Z,72.32
2018-09-29T02:41:36.189Z,72.27
2018-09-29T02:44:04.242Z,72.45
2018-09-29T02:46:32.253Z,72.42
2018-09-29T02:49:00.274Z,71.71
2018-09-29T02:51:28.289Z,72.70
2018-09-29T02:53:56.318Z,72.04
2018-09-29T02:56:24.350Z,72.08
2018-09-29T02:58:52.559Z,72.72
2018-09-29T03:01:20.575Z,72.07
2018-09-29T03:03:48.684Z,71.71
2018-09-29T03:06:16.756Z,71.62
2018-09-29T03:08:44.828Z,72.55
2018-09-29T03:11:12.847Z,72.21
2018-09-29T03:13:41.949Z,72.43
2018-09-29T03:16:09.994Z,71.29
2018-09-29T03:18:38.032Z,71.86
2018-09-29T03:21:06.107Z,71.43
2018-09-29T03:23:34.125Z,73.28
2018-09-29T03:26:02.122Z,72.86
2018-09-29T03:28:36.961Z,73.65
2018-09-29T03:31:05.006Z,73.60
2018-09-29T03:33:33.051Z,72.92
2018-09-29T03:36:01.066Z,73.04
2018-09-29T03:38:29.115Z,73.27
2018-09-29T03:40:57.152Z,73.87
2018-09-29T03:43:25.222Z,74.05
2018-09-29T03:45:53.265Z,73.08
2018-09-29T03:48:21.373Z,73.17
2018-09-29T03:50:49.404Z,73.29
2018-09-29T03:53:17.579Z,73.08
2018-09-29T03:55:45.610Z,73.21
2018-09-29T03:58:13.651Z,73.54
2018-09-29T04:00:41.679Z,73.01
2018-09-29T04:03:09.715Z,72.70
2018-09-29T04:05:37.726Z,73.02
2018-09-29T04:08:05.763Z,73.14
2018-09-29T04:10:33.819Z,73.36
2018-09-29T04:13:01.836Z,73.24
2018-09-29T04:15:29.900Z,73.13
2018-09-29T04:17:58.115Z,72.86
2018-09-29T04:20:26.162Z,72.71
2018-09-29T04:22:54.174Z,72.64
2018-09-29T04:25:22.288Z,73.24
2018-09-29T04:27:50.353Z,72.36
2018-09-29T04:30:18.394Z,72.36
2018-09-29T04:32:46.424Z,72.94
2018-09-29T04:35:14.486Z,72.72
2018-09-29T04:37:42.539Z,72.69
2018-09-29T04:40:10.552Z,72.07
2018-09-29T04:42:38.588Z,72.96
2018-09-29T04:45:06.622Z,73.09
2018-09-29T04:47:34.658Z,72.93
2018-09-29T04:50:02.720Z,72.71
2018-09-29T04:52:30.754Z,74.39
2018-09-29T04:54:58.799Z,74.22
2018-09-29T04:57:26.834Z,73.84
2018-09-29T04:59:54.882Z,73.36
2018-09-29T05:02:22.955Z,73.76
2018-09-29T05:04:51.054Z,73.37
2018-09-29T05:07:19.169Z,73.71
2018-09-29T05:09:47.282Z,74.11
2018-09-29T05:12:15.336Z,73.44
2018-09-29T05:14:43.363Z,75.18
2018-09-29T05:17:11.379Z,73.75
2018-09-29T05:19:39.406Z,74.15
2018-09-29T05:22:07.551Z,73.16
2018-09-29T05:24:35.553Z,72.86
2018-09-29T05:27:03.594Z,72.86
2018-09-29T05:29:31.673Z,72.51
2018-09-29T05:31:59.713Z,72.40
2018-09-29T05:34:27.757Z,72.45
2018-09-29T05:36:55.882Z,72.72
2018-09-29T05:39:23.914Z,72.63
2018-09-29T05:41:51.946Z,72.62
2018-09-29T05:44:19.998Z,73.18
2018-09-29T05:46:48.009Z,72.09
2018-09-29T05:49:16.025Z,72.18
2018-09-29T05:51:44.142Z,72.07
2018-09-29T05:54:12.203Z,71.98
2018-09-29T05:56:40.229Z,73.69
2018-09-29T05:59:08.263Z,72.41
2018-09-29T06:01:36.306Z,71.25
2018-09-29T06:04:04.341Z,68.30
2018-09-29T06:06:33.405Z,64.61
2018-09-29T06:09:02.517Z,56.62
2018-09-29T06:11:30.536Z,52.41
2018-09-29T06:13:58.853Z,49.60
2018-09-29T06:16:26.923Z,47.82
2018-09-29T06:18:55.018Z,45.23
2018-09-29T06:21:23.030Z,42.15
2018-09-29T06:23:51.070Z,39.53
2018-09-29T06:26:19.171Z,37.37
2018-09-29T06:28:47.279Z,36.47
2018-09-29T06:31:15.345Z,34.40
2018-09-29T06:33:43.411Z,33.11
2018-09-29T06:36:11.534Z,31.66
2018-09-29T06:38:39.620Z,30.92
2018-09-29T06:41:07.669Z,29.71
2018-09-29T06:43:35.715Z,29.72
2018-09-29T06:46:03.746Z,28.37
2018-09-29T06:48:31.853Z,28.30
2018-09-29T06:50:59.869Z,26.71
2018-09-29T06:53:27.934Z,25.82
2018-09-29T06:55:55.969Z,25.00
2018-09-29T06:58:23.994Z,24.56
2018-09-29T07:00:52.034Z,25.30
2018-09-29T07:03:21.087Z,24.90
2018-09-29T07:05:49.300Z,24.24
2018-09-29T07:08:17.334Z,25.47
2018-09-29T07:10:45.389Z,23.62
2018-09-29T07:13:13.478Z,24.08
2018-09-29T07:15:41.517Z,25.26
2018-09-29T07:18:09.599Z,24.66
2018-09-29T07:20:37.714Z,24.11
2018-09-29T07:23:05.742Z,23.97
2018-09-29T07:25:33.942Z,23.31
2018-09-29T07:28:01.947Z,22.45
2018-09-29T07:30:30.001Z,23.06
2018-09-29T07:32:58.065Z,22.01
2018-09-29T07:35:26.114Z,20.68
2018-09-29T07:37:54.251Z,20.09
2018-09-29T07:40:22.282Z,20.90
2018-09-29T07:42:50.354Z,19.46
2018-09-29T07:45:18.422Z,20.18
2018-09-29T07:47:46.487Z,20.40
2018-09-29T07:50:14.585Z,20.07
2018-09-29T07:52:43.634Z,19.40
2018-09-29T07:55:11.717Z,18.07
2018-09-29T07:57:39.725Z,18.87
2018-09-29T08:00:07.914Z,19.11
2018-09-29T08:02:35.975Z,19.65
2018-09-29T08:05:04.013Z,19.50
2018-09-29T08:07:32.035Z,20.16
2018-09-29T08:10:00.115Z,20.57
2018-09-29T08:12:28.259Z,19.58
2018-09-29T08:14:56.395Z,19.98
2018-09-29T08:17:24.430Z,20.38
2018-09-29T08:19:52.502Z,20.47
2018-09-29T08:22:20.545Z,20.00
2018-09-29T08:24:48.594Z,19.95
2018-09-29T08:27:16.604Z,18.90
2018-09-29T08:29:44.700Z,18.54
2018-09-29T08:32:12.784Z,18.35
2018-09-29T08:34:40.773Z,18.90
2018-09-29T08:37:08.771Z,18.88
2018-09-29T08:39:36.805Z,18.21
2018-09-29T08:42:04.841Z,19.65
2018-09-29T08:44:32.878Z,19.48
2018-09-29T08:47:00.906Z,19.20
2018-09-29T08:49:29.927Z,19.46
2018-09-29T08:51:57.946Z,20.36
2018-09-29T08:54:25.979Z,20.20
2018-09-29T08:56:54.015Z,20.78
2018-09-29T08:59:22.065Z,20.70
2018-09-29T09:01:50.078Z,20.26
2018-09-29T09:04:18.145Z,21.62
2018-09-29T09:06:47.254Z,21.68
2018-09-29T09:09:15.327Z,21.43
2018-09-29T09:11:43.356Z,23.32
2018-09-29T09:14:11.670Z,23.06
2018-09-29T09:16:39.681Z,23.44
2018-09-29T09:19:07.742Z,24.22
2018-09-29T09:21:35.811Z,24.38
2018-09-29T09:24:03.846Z,23.13
2018-09-29T09:26:31.880Z,24.85
2018-09-29T09:28:59.930Z,24.19
2018-09-29T09:31:28.010Z,25.06
2018-09-29T09:33:56.085Z,25.16
2018-09-29T09:36:24.121Z,25.96
2018-09-29T09:38:52.181Z,25.84
2018-09-29T09:41:20.233Z,27.64
2018-09-29T09:43:48.303Z,26.65
2018-09-29T09:46:16.395Z,27.85
2018-09-29T09:48:44.438Z,27.98
2018-09-29T09:51:12.485Z,27.12
2018-09-29T09:53:40.499Z,29.75
2018-09-29T09:56:08.595Z,29.91
2018-09-29T09:58:37.267Z,30.04
2018-09-29T10:01:10.865Z,29.81
2018-09-29T10:03:38.937Z,31.78
2018-09-29T10:06:06.966Z,34.06
2018-09-29T10:08:35.018Z,35.64
2018-09-29T10:11:03.057Z,33.51
2018-09-29T10:13:31.092Z,35.30
2018-09-29T10:15:59.175Z,33.66
2018-09-29T10:18:27.199Z,35.78
2018-09-29T10:20:55.246Z,35.11
2018-09-29T10:23:23.287Z,36.61
2018-09-29T10:25:51.359Z,35.57
2018-09-29T10:28:19.369Z,37.54
2018-09-29T10:30:47.459Z,37.70
2018-09-29T10:33:15.465Z,38.09
2018-09-29T10:35:43.486Z,36.16
2018-09-29T10:38:11.497Z,36.60
2018-09-29T10:40:39.565Z,36.76
2018-09-29T10:43:07.605Z,34.92
2018-09-29T10:45:35.674Z,35.97
2018-09-29T10:48:03.703Z,37.87
2018-09-29T10:50:31.731Z,37.21
2018-09-29T10:52:59.780Z,38.67
2018-09-29T10:55:27.914Z,37.99
2018-09-29T10:57:56.002Z,39.59
2018-09-29T11:00:24.118Z,40.06
2018-09-29T11:02:52.154Z,38.12
2018-09-29T11:05:20.193Z,37.63
2018-09-29T11:07:48.232Z,36.72
2018-09-29T11:10:16.254Z,39.32
2018-09-29T11:12:44.298Z,38.71
2018-09-29T11:15:12.340Z,38.31
2018-09-29T11:17:40.370Z,39.52
2018-09-29T11:20:08.417Z,37.28
2018-09-29T11:22:36.484Z,38.93
2018-09-29T11:25:04.574Z,36.50
2018-09-29T11:27:32.674Z,38.09
2018-09-29T11:30:00.698Z,37.18
2018-09-29T11:32:28.778Z,37.86
2018-09-29T11:34:56.806Z,38.72
2018-09-29T11:37:24.821Z,36.66
2018-09-29T11:39:52.848Z,34.61
2018-09-29T11:42:20.910Z,37.55
2018-09-29T11:44:49.018Z,37.90
2018-09-29T11:47:16.999Z,39.48
2018-09-29T11:49:45.018Z,38.38
2018-09-29T11:52:13.054Z,35.97
2018-09-29T11:54:41.075Z,35.95
2018-09-29T11:57:09.145Z,37.34
2018-09-29T11:59:37.189Z,39.61
2018-09-29T12:02:05.237Z,39.01
2018-09-29T12:04:33.220Z,38.91
2018-09-29T12:07:01.317Z,37.32
2018-09-29T12:09:29.293Z,38.40
2018-09-29T12:11:57.388Z,35.81
2018-09-29T12:14:25.578Z,37.41
2018-09-29T12:16:53.639Z,35.91
2018-09-29T12:19:21.755Z,35.44
2018-09-29T12:21:49.793Z,37.97
2018-09-29T12:24:17.831Z,36.47
2018-09-29T12:26:45.856Z,34.54
2018-09-29T12:29:13.879Z,37.64
2018-09-29T12:31:41.940Z,34.77
2018-09-29T12:34:09.965Z,36.74
2018-09-29T12:36:38.046Z,35.56
2018-09-29T12:39:07.422Z,36.07
2018-09-29T12:41:35.478Z,34.70
2018-09-29T12:44:03.492Z,34.35
2018-09-29T12:46:31.570Z,33.98
2018-09-29T12:48:59.694Z,33.42
2018-09-29T12:51:27.805Z,34.66
2018-09-29T12:53:56.339Z,35.40
2018-09-29T12:56:24.568Z,35.64
2018-09-29T12:58:52.730Z,35.53
2018-09-29T13:01:20.868Z,36.47
2018-09-29T13:03:48.910Z,35.84
2018-09-29T13:06:16.977Z,36.55
2018-09-29T13:08:45.320Z,36.07
2018-09-29T13:11:13.371Z,37.20
2018-09-29T13:13:41.427Z,37.65
2018-09-29T13:16:09.566Z,39.97
2018-09-29T13:18:37.769Z,38.77
2018-09-29T13:21:05.806Z,38.17
2018-09-29T13:23:33.837Z,36.59
2018-09-29T13:26:02.154Z,37.28
2018-09-29T13:28:30.273Z,36.79
2018-09-29T13:30:58.458Z,36.39
2018-09-29T13:33:26.549Z,37.63
2018-09-29T13:35:54.785Z,37.81
2018-09-29T13:38:23.045Z,36.59
2018-09-29T13:40:51.085Z,37.56
2018-09-29T13:43:19.363Z,38.63
2018-09-29T13:45:47.379Z,37.53
2018-09-29T13:48:15.427Z,38.12
2018-09-29T13:50:43.465Z,37.99
2018-09-29T13:53:11.754Z,37.57
2018-09-29T13:55:39.782Z,36.32
2018-09-29T13:58:07.872Z,38.87
2018-09-29T14:00:35.880Z,38.51
2018-09-29T14:03:03.926Z,39.21
2018-09-29T14:05:31.988Z,38.13
2018-09-29T14:08:00.039Z,38.17
2018-09-29T14:10:28.094Z,38.50
2018-09-29T14:12:56.337Z,39.50
2018-09-29T14:15:24.440Z,38.68
2018-09-29T14:17:52.497Z,37.99
2018-09-29T14:20:20.554Z,38.88
2018-09-29T14:22:48.597Z,39.44
2018-09-29T14:25:17.768Z,38.91
2018-09-29T14:27:45.924Z,39.02
2018-09-29T14:30:14.124Z,39.79
2018-09-29T14:32:42.211Z,38.56
2018-09-29T14:35:10.425Z,39.30
2018-09-29T14:37:39.557Z,40.29
2018-09-29T14:40:07.773Z,37.74
2018-09-29T14:42:35.855Z,36.51
2018-09-29T14:45:04.117Z,36.32
2018-09-29T14:47:32.409Z,37.10
2018-09-29T14:50:00.450Z,39.32
2018-09-29T14:52:28.555Z,36.54
2018-09-29T14:54:56.562Z,37.05
2018-09-29T14:57:24.669Z,38.51
2018-09-29T14:59:52.721Z,39.19
2018-09-29T15:02:20.793Z,37.91
2018-09-29T15:04:48.821Z,36.39
2018-09-29T15:07:16.846Z,37.40
2018-09-29T15:09:44.935Z,37.88
2018-09-29T15:12:12.991Z,39.06
2018-09-29T15:14:41.161Z,38.41
2018-09-29T15:17:09.269Z,39.27
2018-09-29T15:19:37.316Z,38.74
2018-09-29T15:22:05.654Z,40.19
2018-09-29T15:24:33.790Z,40.23
2018-09-29T15:27:01.928Z,40.61
2018-09-29T15:29:30.280Z,39.26
2018-09-29T15:31:58.424Z,39.89
2018-09-29T15:34:26.433Z,40.83
2018-09-29T15:36:54.516Z,37.91
2018-09-29T15:39:22.546Z,40.34
2018-09-29T15:41:50.635Z,37.97
2018-09-29T15:44:18.733Z,38.24
2018-09-29T15:46:46.749Z,38.93
2018-09-29T15:49:14.773Z,37.78
2018-09-29T15:51:42.829Z,37.41
2018-09-29T15:54:11.030Z,38.86
2018-09-29T15:56:39.100Z,41.65
2018-09-29T15:59:07.179Z,40.67
2018-09-29T16:01:35.289Z,40.98
2018-09-29T16:04:03.342Z,39.59
2018-09-29T16:06:31.396Z,39.84
2018-09-29T16:08:59.709Z,41.58
2018-09-29T16:11:27.747Z,40.63
2018-09-29T16:13:55.790Z,42.80
2018-09-29T16:16:23.900Z,42.44
2018-09-29T16:18:51.882Z,42.10
2018-09-29T16:21:19.934Z,41.69
2018-09-29T16:23:48.013Z,42.76
2018-09-29T16:26:16.070Z,41.29
2018-09-29T16:28:44.299Z,44.05
2018-09-29T16:31:12.486Z,43.57
2018-09-29T16:33:40.511Z,44.04
2018-09-29T16:36:08.550Z,43.16
2018-09-29T16:38:36.588Z,43.89
2018-09-29T16:41:04.713Z,44.44
2018-09-29T16:43:32.797Z,44.47
2018-09-29T16:46:00.782Z,44.50
2018-09-29T16:48:28.850Z,43.24
2018-09-29T16:50:56.949Z,44.37
2018-09-29T16:53:24.994Z,44.15
2018-09-29T16:55:53.046Z,44.36
2018-09-29T16:58:21.110Z,43.70
2018-09-29T17:00:49.289Z,44.48
2018-09-29T17:03:17.373Z,44.74
2018-09-29T17:05:45.411Z,45.41
2018-09-29T17:08:13.446Z,46.07
2018-09-29T17:10:41.494Z,46.07
2018-09-29T17:13:09.510Z,45.94
2018-09-29T17:15:37.545Z,45.59
2018-09-29T17:18:05.586Z,46.86
2018-09-29T17:20:33.654Z,46.68
2018-09-29T17:23:01.721Z,45.74
2018-09-29T17:25:29.745Z,47.04
2018-09-29T17:27:57.785Z,47.13
2018-09-29T17:30:25.805Z,47.62
2018-09-29T17:32:53.841Z,48.42
2018-09-29T17:35:21.946Z,49.30
2018-09-29T17:37:49.990Z,50.37
2018-09-29T17:40:18.018Z,51.00
2018-09-29T17:42:46.038Z,51.39
2018-09-29T17:45:14.071Z,50.89
2018-09-29T17:47:42.115Z,52.48
2018-09-29T17:50:10.492Z,52.09
2018-09-29T17:52:38.572Z,53.48
2018-09-29T17:55:06.619Z,53.57
2018-09-29T17:57:34.649Z,54.75
2018-09-29T18:00:02.714Z,54.87
2018-09-29T18:02:30.780Z,55.43
2018-09-29T18:04:58.987Z,55.75
2018-09-29T18:07:27.068Z,56.41
2018-09-29T18:09:55.130Z,56.86
2018-09-29T18:12:23.146Z,57.66
2018-09-29T18:14:51.249Z,57.13
2018-09-29T18:17:19.306Z,58.17
2018-09-29T18:19:47.430Z,58.10
2018-09-29T18:22:15.638Z,58.91
2018-09-29T18:24:43.727Z,58.55
2018-09-29T18:27:12.038Z,58.89
2018-09-29T18:29:40.106Z,59.63
2018-09-29T18:32:08.643Z,59.64
2018-09-29T18:34:36.823Z,60.35
2018-09-29T18:37:05.010Z,59.30
2018-09-29T18:39:33.135Z,59.92
2018-09-29T18:42:01.296Z,60.17
2018-09-29T18:44:29.354Z,61.27
2018-09-29T18:46:57.646Z,60.68
2018-09-29T18:49:25.867Z,61.13
2018-09-29T18:51:54.310Z,61.81
2018-09-29T18:54:22.395Z,61.81
2018-09-29T18:56:50.650Z,61.76
2018-09-29T18:59:18.782Z,62.58
2018-09-29T19:01:47.136Z,62.73
2018-09-29T19:04:15.314Z,62.77
2018-09-29T19:06:43.489Z,63.53
2018-09-29T19:09:13.084Z,63.93
2018-09-29T19:11:41.972Z,63.79
2018-09-29T19:14:10.129Z,63.24
2018-09-29T19:16:38.237Z,63.96
2018-09-29T19:19:06.700Z,64.43
2018-09-29T19:21:34.900Z,63.60
2018-09-29T19:24:03.062Z,63.67
2018-09-29T19:26:31.169Z,63.29
2018-09-29T19:28:59.206Z,63.59
2018-09-29T19:31:27.338Z,63.50
2018-09-29T19:33:55.470Z,63.56
2018-09-29T19:36:23.553Z,64.42
2018-09-29T19:38:51.654Z,64.01
2018-09-29T19:41:19.816Z,64.56
2018-09-29T19:43:47.899Z,64.25
2018-09-29T19:46:16.200Z,65.72
2018-09-29T19:48:44.343Z,65.45
2018-09-29T19:51:12.652Z,65.14
2018-09-29T19:53:40.749Z,65.86
2018-09-29T19:56:08.893Z,66.20
2018-09-29T19:58:37.938Z,65.87
2018-09-29T20:01:06.130Z,66.61
2018-09-29T20:03:34.203Z,66.52
2018-09-29T20:06:03.317Z,66.99
2018-09-29T20:08:31.346Z,66.73
2018-09-29T20:10:59.404Z,66.92
2018-09-29T20:13:27.465Z,66.34
2018-09-29T20:15:55.697Z,66.59
2018-09-29T20:18:23.757Z,66.31
2018-09-29T20:20:51.809Z,67.00
2018-09-29T20:23:19.829Z,66.42
2018-09-29T20:25:47.838Z,67.16
2018-09-29T20:28:15.891Z,66.39
2018-09-29T20:30:43.910Z,66.24
2018-09-29T20:33:11.962Z,66.32
2018-09-29T20:35:40.035Z,66.32
2018-09-29T20:38:08.073Z,66.68
2018-09-29T20:40:36.294Z,67.52
2018-09-29T20:43:04.318Z,66.96
2018-09-29T20:45:32.381Z,66.38
2018-09-29T20:48:00.401Z,67.19
2018-09-29T20:50:28.427Z,66.71
2018-09-29T20:52:56.521Z,67.06
2018-09-29T20:55:24.598Z,67.64
2018-09-29T20:57:52.602Z,67.66
2018-09-29T21:00:20.686Z,67.73
2018-09-29T21:02:48.710Z,68.53
2018-09-29T21:05:16.746Z,67.87
2018-09-29T21:07:44.809Z,68.38
2018-09-29T21:10:12.833Z,68.25
2018-09-29T21:12:40.875Z,68.45
2018-09-29T21:15:08.945Z,69.09
2018-09-29T21:17:37.010Z,69.68
2018-09-29T21:20:05.522Z,70.18
2018-09-29T21:22:33.681Z,69.29
2018-09-29T21:25:01.696Z,69.07
2018-09-29T21:27:29.877Z,69.59
2018-09-29T21:29:57.881Z,69.31
2018-09-29T21:32:25.938Z,69.08
2018-09-29T21:34:53.973Z,68.91
2018-09-29T21:37:21.981Z,68.88
2018-09-29T21:39:50.001Z,68.77
2018-09-29T21:42:18.108Z,68.62
2018-09-29T21:44:46.117Z,69.60
2018-09-29T21:47:14.158Z,68.60
2018-09-29T21:49:42.284Z,68.70
2018-09-29T21:52:10.354Z,68.72
2018-09-29T21:54:38.424Z,69.11
2018-09-29T21:57:06.731Z,69.23
2018-09-29T21:59:34.777Z,69.23
2018-09-29T22:02:02.777Z,68.79
2018-09-29T22:04:30.907Z,69.64
2018-09-29T22:06:58.930Z,69.37
2018-09-29T22:09:26.975Z,69.03
2018-09-29T22:11:54.989Z,68.55
2018-09-29T22:14:23.089Z,68.84
2018-09-29T22:16:51.162Z,68.89
2018-09-29T22:19:19.235Z,69.60
2018-09-29T22:21:47.234Z,69.43
2018-09-29T22:24:15.304Z,69.25
2018-09-29T22:26:43.301Z,68.77
2018-09-29T22:29:11.336Z,69.14
2018-09-29T22:31:39.397Z,69.29
2018-09-29T22:34:07.432Z,69.29
2018-09-29T22:36:35.541Z,68.62
2018-09-29T22:39:04.340Z,68.25
2018-09-29T22:41:32.360Z,68.72
2018-09-29T22:44:00.431Z,68.89
2018-09-29T22:46:28.482Z,69.17
2018-09-29T22:48:56.550Z,68.83
2018-09-29T22:51:24.559Z,68.81
2018-09-29T22:53:52.603Z,68.63
2018-09-29T22:56:20.669Z,68.97
2018-09-29T22:58:48.714Z,68.91
2018-09-29T23:01:16.847Z,68.41
2018-09-29T23:03:44.948Z,69.29
2018-09-29T23:06:12.965Z,69.80
2018-09-29T23:08:41.013Z,69.30
2018-09-29T23:11:09.038Z,69.61
2018-09-29T23:13:37.105Z,70.02
2018-09-29T23:16:05.153Z,69.24
2018-09-29T23:18:33.213Z,69.72
2018-09-29T23:21:01.282Z,71.05
2018-09-29T23:23:29.341Z,70.31
2018-09-29T23:25:57.480Z,70.87
2018-09-29T23:28:25.664Z,69.37
2018-09-29T23:30:53.673Z,69.58
2018-09-29T23:33:21.774Z,70.25
2018-09-29T23:35:49.896Z,69.92
2018-09-29T23:38:18.046Z,69.75
2018-09-29T23:40:46.117Z,70.21
2018-09-29T23:43:14.142Z,69.95
2018-09-29T23:45:42.179Z,70.44
2018-09-29T23:48:10.231Z,71.09
2018-09-29T23:50:38.373Z,70.62
2018-09-29T23:53:06.425Z,69.80
2018-09-29T23:55:34.450Z,69.78
2018-09-29T23:58:02.615Z,69.73
